sensor_id;sensor_type;location;lat;lon;timestamp;temperature;humidity
57652;DHT22;43480;53.116;6.734;2023-02-26T00:02:16;1.30;99.90
57652;DHT22;43480;53.116;6.734;2023-02-26T00:04:41;1.30;99.90
57652;DHT22;43480;53.116;6.734;2023-02-26T00:07:07;1.20;99.90
57652;DHT22;43480;53.116;6.734;2023-02-26T00:09:32;1.20;99.90
57652;DHT22;43480;53.116;6.734;2023-02-26T00:11:59;1.20;99.90
57652;DHT22;43480;53.116;6.734;2023-02-26T00:14:24;1.10;99.90
57652;DHT22;43480;53.116;6.734;2023-02-26T00:17:04;1.20;99.90
57652;DHT22;43480;53.116;6.734;2023-02-26T00:19:39;1.20;99.90
57652;DHT22;43480;53.116;6.734;2023-02-26T00:22:04;1.20;99.90
57652;DHT22;43480;53.116;6.734;2023-02-26T00:24:30;1.20;99.90
57652;DHT22;43480;53.116;6.734;2023-02-26T00:26:55;1.20;99.90
57652;DHT22;43480;53.116;6.734;2023-02-26T00:29:21;1.20;99.90
57652;DHT22;43480;53.116;6.734;2023-02-26T00:31:47;1.20;99.90
57652;DHT22;43480;53.116;6.734;2023-02-26T00:34:12;1.20;99.90
57652;DHT22;43480;53.116;6.734;2023-02-26T00:39:06;1.30;99.90
57652;DHT22;43480;53.116;6.734;2023-02-26T00:41:32;1.20;99.90
57652;DHT22;43480;53.116;6.734;2023-02-26T00:43:57;1.30;99.90
57652;DHT22;43480;53.116;6.734;2023-02-26T00:49:26;1.30;99.90
57652;DHT22;43480;53.116;6.734;2023-02-26T00:51:58;1.20;99.90
57652;DHT22;43480;53.116;6.734;2023-02-26T00:54:27;1.20;99.90
57652;DHT22;43480;53.116;6.734;2023-02-26T00:56:53;1.20;99.90
57652;DHT22;43480;53.116;6.734;2023-02-26T00:59:19;1.20;99.90
57652;DHT22;43480;53.116;6.734;2023-02-26T01:01:45;1.10;99.90
57652;DHT22;43480;53.116;6.734;2023-02-26T01:04:11;1.10;99.90
57652;DHT22;43480;53.116;6.734;2023-02-26T01:06:41;1.10;99.90
57652;DHT22;43480;53.116;6.734;2023-02-26T01:09:13;1.00;99.90
57652;DHT22;43480;53.116;6.734;2023-02-26T01:11:40;1.00;99.90
57652;DHT22;43480;53.116;6.734;2023-02-26T01:14:05;1.00;99.90
57652;DHT22;43480;53.116;6.734;2023-02-26T01:16:33;1.00;99.90
57652;DHT22;43480;53.116;6.734;2023-02-26T01:19:06;0.90;99.90
57652;DHT22;43480;53.116;6.734;2023-02-26T01:21:35;0.90;99.90
57652;DHT22;43480;53.116;6.734;2023-02-26T01:24:04;0.90;99.90
57652;DHT22;43480;53.116;6.734;2023-02-26T01:26:30;0.90;99.90
57652;DHT22;43480;53.116;6.734;2023-02-26T01:28:55;0.80;99.90
57652;DHT22;43480;53.116;6.734;2023-02-26T01:34:04;0.80;99.90
57652;DHT22;43480;53.116;6.734;2023-02-26T01:36:32;0.80;99.90
57652;DHT22;43480;53.116;6.734;2023-02-26T01:39:24;0.70;99.90
57652;DHT22;43480;53.116;6.734;2023-02-26T01:41:51;0.70;99.90
57652;DHT22;43480;53.116;6.734;2023-02-26T01:49:24;0.70;99.90
57652;DHT22;43480;53.116;6.734;2023-02-26T01:54:17;0.70;99.90
57652;DHT22;43480;53.116;6.734;2023-02-26T01:56:43;0.60;99.90
57652;DHT22;43480;53.116;6.734;2023-02-26T01:59:10;0.60;99.90
57652;DHT22;43480;53.116;6.734;2023-02-26T02:01:36;0.60;99.90
57652;DHT22;43480;53.116;6.734;2023-02-26T02:04:02;0.60;99.90
57652;DHT22;43480;53.116;6.734;2023-02-26T02:06:28;0.60;99.90
57652;DHT22;43480;53.116;6.734;2023-02-26T02:08:55;0.60;99.90
57652;DHT22;43480;53.116;6.734;2023-02-26T02:11:20;0.60;99.90
57652;DHT22;43480;53.116;6.734;2023-02-26T02:13:53;0.50;99.90
57652;DHT22;43480;53.116;6.734;2023-02-26T02:24:10;0.50;99.90
57652;DHT22;43480;53.116;6.734;2023-02-26T02:31:36;0.50;99.90
57652;DHT22;43480;53.116;6.734;2023-02-26T02:34:03;0.50;99.90
57652;DHT22;43480;53.116;6.734;2023-02-26T02:36:40;0.50;99.90
57652;DHT22;43480;53.116;6.734;2023-02-26T02:39:14;0.50;99.90
57652;DHT22;43480;53.116;6.734;2023-02-26T02:44:39;0.50;99.90
57652;DHT22;43480;53.116;6.734;2023-02-26T02:47:08;0.50;99.90
57652;DHT22;43480;53.116;6.734;2023-02-26T02:49:36;0.50;99.90
57652;DHT22;43480;53.116;6.734;2023-02-26T02:52:15;0.40;99.90
57652;DHT22;43480;53.116;6.734;2023-02-26T02:54:50;0.40;99.90
57652;DHT22;43480;53.116;6.734;2023-02-26T02:57:24;0.40;99.90
57652;DHT22;43480;53.116;6.734;2023-02-26T02:59:52;0.40;99.90
57652;DHT22;43480;53.116;6.734;2023-02-26T03:03:02;0.40;99.90
57652;DHT22;43480;53.116;6.734;2023-02-26T03:05:07;0.40;99.90
57652;DHT22;43480;53.116;6.734;2023-02-26T03:07:35;0.40;99.90
57652;DHT22;43480;53.116;6.734;2023-02-26T03:10:02;0.30;99.90
57652;DHT22;43480;53.116;6.734;2023-02-26T03:12:31;0.30;99.90
57652;DHT22;43480;53.116;6.734;2023-02-26T03:14:57;0.30;99.90
57652;DHT22;43480;53.116;6.734;2023-02-26T03:17:25;0.20;99.90
57652;DHT22;43480;53.116;6.734;2023-02-26T03:30:00;0.10;99.90
57652;DHT22;43480;53.116;6.734;2023-02-26T03:32:28;0.10;99.90
57652;DHT22;43480;53.116;6.734;2023-02-26T03:34:58;0.10;99.90
57652;DHT22;43480;53.116;6.734;2023-02-26T03:37:26;0.10;99.90
57652;DHT22;43480;53.116;6.734;2023-02-26T03:39:55;0.00;99.90
57652;DHT22;43480;53.116;6.734;2023-02-26T03:42:43;0.00;99.90
57652;DHT22;43480;53.116;6.734;2023-02-26T03:45:11;0.00;99.90
57652;DHT22;43480;53.116;6.734;2023-02-26T03:47:38;-0.10;99.90
57652;DHT22;43480;53.116;6.734;2023-02-26T03:52:31;-0.10;99.90
57652;DHT22;43480;53.116;6.734;2023-02-26T03:54:59;-0.10;99.90
57652;DHT22;43480;53.116;6.734;2023-02-26T03:57:25;-0.10;99.90
57652;DHT22;43480;53.116;6.734;2023-02-26T03:59:51;-0.20;99.90
57652;DHT22;43480;53.116;6.734;2023-02-26T04:02:18;-0.20;99.90
57652;DHT22;43480;53.116;6.734;2023-02-26T04:04:46;-0.20;99.90
57652;DHT22;43480;53.116;6.734;2023-02-26T04:07:14;-0.20;99.90
57652;DHT22;43480;53.116;6.734;2023-02-26T04:09:40;-0.30;99.90
57652;DHT22;43480;53.116;6.734;2023-02-26T04:12:06;-0.30;99.90
57652;DHT22;43480;53.116;6.734;2023-02-26T04:14:32;-0.30;99.90
57652;DHT22;43480;53.116;6.734;2023-02-26T04:16:57;-0.30;99.90
57652;DHT22;43480;53.116;6.734;2023-02-26T04:19:23;-0.30;99.90
57652;DHT22;43480;53.116;6.734;2023-02-26T04:21:48;-0.40;99.90
57652;DHT22;43480;53.116;6.734;2023-02-26T04:24:14;-0.40;99.90
57652;DHT22;43480;53.116;6.734;2023-02-26T04:26:39;-0.40;99.90
57652;DHT22;43480;53.116;6.734;2023-02-26T04:29:05;-0.50;99.90
57652;DHT22;43480;53.116;6.734;2023-02-26T04:31:30;-0.50;99.90
57652;DHT22;43480;53.116;6.734;2023-02-26T04:33:56;-0.50;99.90
57652;DHT22;43480;53.116;6.734;2023-02-26T04:36:21;-0.60;99.90
57652;DHT22;43480;53.116;6.734;2023-02-26T04:38:47;-0.60;99.90
57652;DHT22;43480;53.116;6.734;2023-02-26T04:41:14;-0.60;99.90
57652;DHT22;43480;53.116;6.734;2023-02-26T04:43:40;-0.60;99.90
57652;DHT22;43480;53.116;6.734;2023-02-26T04:46:05;-0.60;99.90
57652;DHT22;43480;53.116;6.734;2023-02-26T04:48:31;-0.60;99.90
57652;DHT22;43480;53.116;6.734;2023-02-26T04:50:56;-0.60;99.90
57652;DHT22;43480;53.116;6.734;2023-02-26T04:53:22;-0.60;99.90
57652;DHT22;43480;53.116;6.734;2023-02-26T04:55:47;-0.60;99.90
57652;DHT22;43480;53.116;6.734;2023-02-26T04:58:13;-0.60;99.90
57652;DHT22;43480;53.116;6.734;2023-02-26T05:00:38;-0.60;99.90
57652;DHT22;43480;53.116;6.734;2023-02-26T05:03:04;-0.60;99.90
57652;DHT22;43480;53.116;6.734;2023-02-26T05:05:30;-0.60;99.90
57652;DHT22;43480;53.116;6.734;2023-02-26T05:07:55;-0.70;99.90
57652;DHT22;43480;53.116;6.734;2023-02-26T05:10:21;-0.60;99.90
57652;DHT22;43480;53.116;6.734;2023-02-26T05:12:47;-0.70;99.90
57652;DHT22;43480;53.116;6.734;2023-02-26T05:15:13;-0.70;99.90
57652;DHT22;43480;53.116;6.734;2023-02-26T05:17:38;-0.60;99.90
57652;DHT22;43480;53.116;6.734;2023-02-26T05:20:04;-0.70;99.90
57652;DHT22;43480;53.116;6.734;2023-02-26T05:22:30;-0.70;99.90
57652;DHT22;43480;53.116;6.734;2023-02-26T05:24:56;-0.70;99.90
57652;DHT22;43480;53.116;6.734;2023-02-26T05:27:21;-0.70;99.90
57652;DHT22;43480;53.116;6.734;2023-02-26T05:29:47;-0.70;99.90
57652;DHT22;43480;53.116;6.734;2023-02-26T05:32:12;-0.80;99.90
57652;DHT22;43480;53.116;6.734;2023-02-26T05:34:38;-0.80;99.90
57652;DHT22;43480;53.116;6.734;2023-02-26T05:37:03;-0.80;99.90
57652;DHT22;43480;53.116;6.734;2023-02-26T05:39:29;-0.70;99.90
57652;DHT22;43480;53.116;6.734;2023-02-26T05:41:54;-0.70;99.90
57652;DHT22;43480;53.116;6.734;2023-02-26T05:44:21;-0.70;99.90
57652;DHT22;43480;53.116;6.734;2023-02-26T05:46:47;-0.60;99.90
57652;DHT22;43480;53.116;6.734;2023-02-26T05:49:12;-0.60;99.90
57652;DHT22;43480;53.116;6.734;2023-02-26T05:51:38;-0.50;99.90
57652;DHT22;43480;53.116;6.734;2023-02-26T05:54:04;-0.50;99.90
57652;DHT22;43480;53.116;6.734;2023-02-26T05:56:29;-0.50;99.90
57652;DHT22;43480;53.116;6.734;2023-02-26T05:58:55;-0.50;99.90
57652;DHT22;43480;53.116;6.734;2023-02-26T06:01:20;-0.50;99.90
57652;DHT22;43480;53.116;6.734;2023-02-26T06:03:46;-0.50;99.90
57652;DHT22;43480;53.116;6.734;2023-02-26T06:06:13;-0.50;99.90
57652;DHT22;43480;53.116;6.734;2023-02-26T06:08:42;-0.50;99.90
57652;DHT22;43480;53.116;6.734;2023-02-26T06:11:07;-0.50;99.90
57652;DHT22;43480;53.116;6.734;2023-02-26T06:13:33;-0.50;99.90
57652;DHT22;43480;53.116;6.734;2023-02-26T06:15:59;-0.60;99.90
57652;DHT22;43480;53.116;6.734;2023-02-26T06:18:24;-0.50;99.90
57652;DHT22;43480;53.116;6.734;2023-02-26T06:20:50;-0.60;99.90
57652;DHT22;43480;53.116;6.734;2023-02-26T06:23:15;-0.60;99.90
57652;DHT22;43480;53.116;6.734;2023-02-26T06:25:41;-0.60;99.90
57652;DHT22;43480;53.116;6.734;2023-02-26T06:28:07;-0.70;99.90
57652;DHT22;43480;53.116;6.734;2023-02-26T06:30:33;-0.70;99.90
57652;DHT22;43480;53.116;6.734;2023-02-26T06:32:58;-0.70;99.90
57652;DHT22;43480;53.116;6.734;2023-02-26T06:35:24;-0.70;99.90
57652;DHT22;43480;53.116;6.734;2023-02-26T06:37:49;-0.70;99.90
57652;DHT22;43480;53.116;6.734;2023-02-26T06:40:15;-0.70;99.90
57652;DHT22;43480;53.116;6.734;2023-02-26T06:42:40;-0.70;99.90
57652;DHT22;43480;53.116;6.734;2023-02-26T06:45:06;-0.70;99.90
57652;DHT22;43480;53.116;6.734;2023-02-26T06:47:32;-0.70;99.90
57652;DHT22;43480;53.116;6.734;2023-02-26T06:49:57;-0.80;99.90
57652;DHT22;43480;53.116;6.734;2023-02-26T06:52:23;-0.80;99.90
57652;DHT22;43480;53.116;6.734;2023-02-26T06:54:48;-0.90;99.90
57652;DHT22;43480;53.116;6.734;2023-02-26T06:57:14;-0.90;99.90
57652;DHT22;43480;53.116;6.734;2023-02-26T06:59:39;-0.90;99.90
57652;DHT22;43480;53.116;6.734;2023-02-26T07:02:05;-1.00;99.90
57652;DHT22;43480;53.116;6.734;2023-02-26T07:04:30;-1.00;99.90
57652;DHT22;43480;53.116;6.734;2023-02-26T07:06:56;-1.00;99.90
57652;DHT22;43480;53.116;6.734;2023-02-26T07:09:21;-1.00;99.90
57652;DHT22;43480;53.116;6.734;2023-02-26T07:11:47;-1.00;99.90
57652;DHT22;43480;53.116;6.734;2023-02-26T07:14:12;-1.00;99.90
57652;DHT22;43480;53.116;6.734;2023-02-26T07:16:38;-1.00;99.90
57652;DHT22;43480;53.116;6.734;2023-02-26T07:19:04;-1.00;99.90
57652;DHT22;43480;53.116;6.734;2023-02-26T07:21:29;-1.00;99.90
57652;DHT22;43480;53.116;6.734;2023-02-26T07:23:55;-0.90;99.90
57652;DHT22;43480;53.116;6.734;2023-02-26T07:26:20;-0.90;99.90
57652;DHT22;43480;53.116;6.734;2023-02-26T07:28:46;-0.90;99.90
57652;DHT22;43480;53.116;6.734;2023-02-26T07:31:11;-0.90;99.90
57652;DHT22;43480;53.116;6.734;2023-02-26T07:33:37;-0.80;99.90
57652;DHT22;43480;53.116;6.734;2023-02-26T07:36:04;-0.80;99.90
57652;DHT22;43480;53.116;6.734;2023-02-26T07:38:29;-0.70;99.90
57652;DHT22;43480;53.116;6.734;2023-02-26T07:40:55;-0.50;99.90
57652;DHT22;43480;53.116;6.734;2023-02-26T07:43:21;-0.40;99.90
57652;DHT22;43480;53.116;6.734;2023-02-26T07:45:48;-0.30;99.90
57652;DHT22;43480;53.116;6.734;2023-02-26T07:48:14;-0.20;99.90
57652;DHT22;43480;53.116;6.734;2023-02-26T07:50:40;-0.10;99.90
57652;DHT22;43480;53.116;6.734;2023-02-26T07:53:05;0.00;99.90
57652;DHT22;43480;53.116;6.734;2023-02-26T07:55:31;0.20;99.90
57652;DHT22;43480;53.116;6.734;2023-02-26T07:57:56;0.30;99.90
57652;DHT22;43480;53.116;6.734;2023-02-26T08:00:22;0.40;99.90
57652;DHT22;43480;53.116;6.734;2023-02-26T08:02:47;0.50;99.90
57652;DHT22;43480;53.116;6.734;2023-02-26T08:05:13;0.50;99.90
57652;DHT22;43480;53.116;6.734;2023-02-26T08:07:39;0.50;99.90
57652;DHT22;43480;53.116;6.734;2023-02-26T08:10:04;0.60;99.90
57652;DHT22;43480;53.116;6.734;2023-02-26T08:12:30;0.70;99.90
57652;DHT22;43480;53.116;6.734;2023-02-26T08:14:57;0.80;99.90
57652;DHT22;43480;53.116;6.734;2023-02-26T08:17:22;0.90;99.90
57652;DHT22;43480;53.116;6.734;2023-02-26T08:19:48;1.00;99.90
57652;DHT22;43480;53.116;6.734;2023-02-26T08:22:13;1.10;99.90
57652;DHT22;43480;53.116;6.734;2023-02-26T08:24:39;1.20;99.90
57652;DHT22;43480;53.116;6.734;2023-02-26T08:27:05;1.30;99.90
57652;DHT22;43480;53.116;6.734;2023-02-26T08:29:30;1.40;99.90
57652;DHT22;43480;53.116;6.734;2023-02-26T08:31:56;1.60;99.90
57652;DHT22;43480;53.116;6.734;2023-02-26T08:34:21;1.80;99.90
57652;DHT22;43480;53.116;6.734;2023-02-26T08:36:47;2.00;99.90
57652;DHT22;43480;53.116;6.734;2023-02-26T08:39:12;2.10;99.90
57652;DHT22;43480;53.116;6.734;2023-02-26T08:41:38;2.20;99.90
57652;DHT22;43480;53.116;6.734;2023-02-26T08:44:03;2.30;99.90
57652;DHT22;43480;53.116;6.734;2023-02-26T08:46:29;2.30;99.90
57652;DHT22;43480;53.116;6.734;2023-02-26T08:48:54;2.40;99.90
57652;DHT22;43480;53.116;6.734;2023-02-26T08:51:20;2.40;99.90
57652;DHT22;43480;53.116;6.734;2023-02-26T08:53:46;2.50;99.90
57652;DHT22;43480;53.116;6.734;2023-02-26T08:56:12;2.60;99.90
57652;DHT22;43480;53.116;6.734;2023-02-26T08:58:38;2.60;99.90
57652;DHT22;43480;53.116;6.734;2023-02-26T09:01:04;2.70;99.90
57652;DHT22;43480;53.116;6.734;2023-02-26T09:03:29;2.70;99.90
57652;DHT22;43480;53.116;6.734;2023-02-26T09:05:55;2.80;99.90
57652;DHT22;43480;53.116;6.734;2023-02-26T09:08:20;2.80;99.90
57652;DHT22;43480;53.116;6.734;2023-02-26T09:10:46;2.90;99.90
57652;DHT22;43480;53.116;6.734;2023-02-26T09:13:12;2.90;99.90
57652;DHT22;43480;53.116;6.734;2023-02-26T09:15:38;3.00;99.90
57652;DHT22;43480;53.116;6.734;2023-02-26T09:18:03;3.10;99.90
57652;DHT22;43480;53.116;6.734;2023-02-26T09:20:29;3.10;99.90
57652;DHT22;43480;53.116;6.734;2023-02-26T09:22:54;3.20;99.90
57652;DHT22;43480;53.116;6.734;2023-02-26T09:25:20;3.30;99.90
57652;DHT22;43480;53.116;6.734;2023-02-26T09:27:45;3.30;99.90
57652;DHT22;43480;53.116;6.734;2023-02-26T09:30:11;3.40;99.90
57652;DHT22;43480;53.116;6.734;2023-02-26T09:32:37;3.40;99.90
57652;DHT22;43480;53.116;6.734;2023-02-26T09:35:03;3.50;99.90
57652;DHT22;43480;53.116;6.734;2023-02-26T09:37:29;3.50;99.90
57652;DHT22;43480;53.116;6.734;2023-02-26T09:39:55;3.60;99.90
57652;DHT22;43480;53.116;6.734;2023-02-26T09:44:46;3.70;99.90
57652;DHT22;43480;53.116;6.734;2023-02-26T09:49:52;3.90;99.90
57652;DHT22;43480;53.116;6.734;2023-02-26T09:52:33;3.90;99.90
57652;DHT22;43480;53.116;6.734;2023-02-26T09:55:01;4.00;99.90
57652;DHT22;43480;53.116;6.734;2023-02-26T09:57:33;4.00;99.90
57652;DHT22;43480;53.116;6.734;2023-02-26T09:59:59;4.00;99.90
57652;DHT22;43480;53.116;6.734;2023-02-26T10:07:41;4.30;99.90
57652;DHT22;43480;53.116;6.734;2023-02-26T10:12:53;4.30;99.90
57652;DHT22;43480;53.116;6.734;2023-02-26T10:15:31;4.50;99.90
57652;DHT22;43480;53.116;6.734;2023-02-26T10:18:03;4.50;99.90
57652;DHT22;43480;53.116;6.734;2023-02-26T10:25:47;4.70;99.90
57652;DHT22;43480;53.116;6.734;2023-02-26T10:28:23;4.90;99.90
57652;DHT22;43480;53.116;6.734;2023-02-26T10:30:54;5.10;99.90
57652;DHT22;43480;53.116;6.734;2023-02-26T10:35:51;5.40;99.90
57652;DHT22;43480;53.116;6.734;2023-02-26T10:38:18;5.50;99.90
57652;DHT22;43480;53.116;6.734;2023-02-26T10:41:27;5.60;99.90
57652;DHT22;43480;53.116;6.734;2023-02-26T10:43:40;5.70;99.90
57652;DHT22;43480;53.116;6.734;2023-02-26T10:48:54;6.00;99.90
57652;DHT22;43480;53.116;6.734;2023-02-26T10:51:24;6.20;99.90
57652;DHT22;43480;53.116;6.734;2023-02-26T10:53:54;6.30;99.90
57652;DHT22;43480;53.116;6.734;2023-02-26T10:56:25;6.40;99.90
57652;DHT22;43480;53.116;6.734;2023-02-26T10:58:51;6.50;99.90
57652;DHT22;43480;53.116;6.734;2023-02-26T11:01:20;6.50;99.90
57652;DHT22;43480;53.116;6.734;2023-02-26T11:03:47;6.40;99.90
57652;DHT22;43480;53.116;6.734;2023-02-26T11:06:16;6.50;99.90
57652;DHT22;43480;53.116;6.734;2023-02-26T11:08:44;6.40;99.90
57652;DHT22;43480;53.116;6.734;2023-02-26T11:11:10;6.40;99.90
57652;DHT22;43480;53.116;6.734;2023-02-26T11:13:55;6.40;99.90
57652;DHT22;43480;53.116;6.734;2023-02-26T11:16:21;6.50;99.90
57652;DHT22;43480;53.116;6.734;2023-02-26T11:18:47;6.60;99.90
57652;DHT22;43480;53.116;6.734;2023-02-26T11:21:18;6.70;99.90
57652;DHT22;43480;53.116;6.734;2023-02-26T11:23:44;6.80;99.90
57652;DHT22;43480;53.116;6.734;2023-02-26T11:26:16;6.80;99.90
57652;DHT22;43480;53.116;6.734;2023-02-26T11:28:43;6.80;99.90
57652;DHT22;43480;53.116;6.734;2023-02-26T11:31:10;6.70;99.90
57652;DHT22;43480;53.116;6.734;2023-02-26T11:33:42;6.70;99.90
57652;DHT22;43480;53.116;6.734;2023-02-26T11:36:11;6.70;99.90
57652;DHT22;43480;53.116;6.734;2023-02-26T11:38:38;6.80;99.90
57652;DHT22;43480;53.116;6.734;2023-02-26T11:41:04;7.00;99.90
57652;DHT22;43480;53.116;6.734;2023-02-26T11:43:35;7.10;99.90
57652;DHT22;43480;53.116;6.734;2023-02-26T11:46:01;7.20;99.90
57652;DHT22;43480;53.116;6.734;2023-02-26T11:48:30;7.20;99.90
57652;DHT22;43480;53.116;6.734;2023-02-26T11:50:59;7.40;99.90
57652;DHT22;43480;53.116;6.734;2023-02-26T11:55:57;7.70;99.90
57652;DHT22;43480;53.116;6.734;2023-02-26T11:58:23;7.90;99.90
57652;DHT22;43480;53.116;6.734;2023-02-26T12:00:52;8.10;99.90
57652;DHT22;43480;53.116;6.734;2023-02-26T12:03:19;8.40;99.90
57652;DHT22;43480;53.116;6.734;2023-02-26T12:05:46;8.70;99.90
57652;DHT22;43480;53.116;6.734;2023-02-26T12:08:57;9.00;99.90
57652;DHT22;43480;53.116;6.734;2023-02-26T12:13:37;9.50;95.60
57652;DHT22;43480;53.116;6.734;2023-02-26T12:16:24;9.30;90.40
57652;DHT22;43480;53.116;6.734;2023-02-26T12:18:58;8.90;83.50
57652;DHT22;43480;53.116;6.734;2023-02-26T12:21:44;8.50;84.00
57652;DHT22;43480;53.116;6.734;2023-02-26T12:24:25;8.00;84.80
57652;DHT22;43480;53.116;6.734;2023-02-26T12:47:40;7.40;89.90
57652;DHT22;43480;53.116;6.734;2023-02-26T12:57:49;8.50;90.80
57652;DHT22;43480;53.116;6.734;2023-02-26T13:00:21;8.60;93.40
57652;DHT22;43480;53.116;6.734;2023-02-26T13:08:04;8.40;86.40
57652;DHT22;43480;53.116;6.734;2023-02-26T13:10:41;8.10;92.70
57652;DHT22;43480;53.116;6.734;2023-02-26T13:20:56;8.10;99.80
57652;DHT22;43480;53.116;6.734;2023-02-26T13:23:26;7.90;98.00
57652;DHT22;43480;53.116;6.734;2023-02-26T13:25:55;7.80;99.90
57652;DHT22;43480;53.116;6.734;2023-02-26T13:30:59;7.60;99.90
57652;DHT22;43480;53.116;6.734;2023-02-26T13:33:27;7.40;99.90
57652;DHT22;43480;53.116;6.734;2023-02-26T13:35:54;7.30;99.90
57652;DHT22;43480;53.116;6.734;2023-02-26T13:41:09;7.10;99.90
57652;DHT22;43480;53.116;6.734;2023-02-26T13:51:39;6.90;99.90
57652;DHT22;43480;53.116;6.734;2023-02-26T13:54:27;6.80;99.90
57652;DHT22;43480;53.116;6.734;2023-02-26T13:56:58;6.80;99.90
57652;DHT22;43480;53.116;6.734;2023-02-26T13:59:34;6.80;99.90
57652;DHT22;43480;53.116;6.734;2023-02-26T14:02:01;6.70;99.90
57652;DHT22;43480;53.116;6.734;2023-02-26T14:04:29;6.60;99.90
57652;DHT22;43480;53.116;6.734;2023-02-26T14:06:56;6.50;99.90
57652;DHT22;43480;53.116;6.734;2023-02-26T14:17:17;7.00;99.90
57652;DHT22;43480;53.116;6.734;2023-02-26T14:20:06;7.00;99.90
57652;DHT22;43480;53.116;6.734;2023-02-26T14:22:34;6.90;99.90
57652;DHT22;43480;53.116;6.734;2023-02-26T14:25:46;6.80;99.90
57652;DHT22;43480;53.116;6.734;2023-02-26T14:27:47;6.70;99.90
57652;DHT22;43480;53.116;6.734;2023-02-26T14:30:31;6.70;99.90
57652;DHT22;43480;53.116;6.734;2023-02-26T14:38:00;6.80;99.90
57652;DHT22;43480;53.116;6.734;2023-02-26T14:40:28;6.90;99.90
57652;DHT22;43480;53.116;6.734;2023-02-26T14:42:58;7.10;99.90
57652;DHT22;43480;53.116;6.734;2023-02-26T14:45:27;7.40;99.90
57652;DHT22;43480;53.116;6.734;2023-02-26T14:47:53;7.60;99.90
57652;DHT22;43480;53.116;6.734;2023-02-26T14:50:20;7.70;99.90
57652;DHT22;43480;53.116;6.734;2023-02-26T14:55:17;8.60;92.80
57652;DHT22;43480;53.116;6.734;2023-02-26T14:57:58;8.90;90.60
57652;DHT22;43480;53.116;6.734;2023-02-26T15:00:38;9.20;83.50
57652;DHT22;43480;53.116;6.734;2023-02-26T15:11:03;9.80;76.80
57652;DHT22;43480;53.116;6.734;2023-02-26T15:23:57;8.90;75.60
57652;DHT22;43480;53.116;6.734;2023-02-26T15:26:25;8.40;79.60
57652;DHT22;43480;53.116;6.734;2023-02-26T15:28:51;8.50;85.30
57652;DHT22;43480;53.116;6.734;2023-02-26T15:31:18;8.90;81.50
57652;DHT22;43480;53.116;6.734;2023-02-26T15:33:47;9.10;78.70
57652;DHT22;43480;53.116;6.734;2023-02-26T15:36:14;9.00;77.80
57652;DHT22;43480;53.116;6.734;2023-02-26T15:38:42;8.80;78.90
57652;DHT22;43480;53.116;6.734;2023-02-26T15:41:08;8.50;80.30
57652;DHT22;43480;53.116;6.734;2023-02-26T15:43:34;8.20;83.70
57652;DHT22;43480;53.116;6.734;2023-02-26T15:45:59;8.10;86.10
57652;DHT22;43480;53.116;6.734;2023-02-26T15:48:28;8.00;87.70
57652;DHT22;43480;53.116;6.734;2023-02-26T15:50:56;7.90;92.00
57652;DHT22;43480;53.116;6.734;2023-02-26T15:53:25;7.60;94.70
57652;DHT22;43480;53.116;6.734;2023-02-26T15:55:52;7.20;98.10
57652;DHT22;43480;53.116;6.734;2023-02-26T15:58:20;6.90;99.90
57652;DHT22;43480;53.116;6.734;2023-02-26T16:00:50;6.60;99.90
57652;DHT22;43480;53.116;6.734;2023-02-26T16:03:16;6.30;99.90
57652;DHT22;43480;53.116;6.734;2023-02-26T16:05:41;6.10;99.90
57652;DHT22;43480;53.116;6.734;2023-02-26T16:08:09;5.90;99.90
57652;DHT22;43480;53.116;6.734;2023-02-26T16:10:37;5.70;99.90
57652;DHT22;43480;53.116;6.734;2023-02-26T16:13:03;5.60;99.90
57652;DHT22;43480;53.116;6.734;2023-02-26T16:15:31;5.50;99.90
57652;DHT22;43480;53.116;6.734;2023-02-26T16:17:57;5.40;99.90
57652;DHT22;43480;53.116;6.734;2023-02-26T16:20:24;5.40;99.90
57652;DHT22;43480;53.116;6.734;2023-02-26T16:23:36;5.50;99.90
57652;DHT22;43480;53.116;6.734;2023-02-26T16:25:59;5.60;99.90
57652;DHT22;43480;53.116;6.734;2023-02-26T16:28:27;5.70;99.90
57652;DHT22;43480;53.116;6.734;2023-02-26T16:30:54;5.60;99.90
57652;DHT22;43480;53.116;6.734;2023-02-26T16:33:22;5.40;99.90
57652;DHT22;43480;53.116;6.734;2023-02-26T16:35:49;5.30;99.90
57652;DHT22;43480;53.116;6.734;2023-02-26T16:40:43;5.10;99.90
57652;DHT22;43480;53.116;6.734;2023-02-26T16:45:53;4.90;99.90
57652;DHT22;43480;53.116;6.734;2023-02-26T16:48:21;4.80;99.90
57652;DHT22;43480;53.116;6.734;2023-02-26T16:53:22;4.60;99.90
57652;DHT22;43480;53.116;6.734;2023-02-26T16:55:49;4.60;99.90
57652;DHT22;43480;53.116;6.734;2023-02-26T16:58:15;4.50;99.90
57652;DHT22;43480;53.116;6.734;2023-02-26T17:00:44;4.50;99.90
57652;DHT22;43480;53.116;6.734;2023-02-26T17:03:14;4.40;99.90
57652;DHT22;43480;53.116;6.734;2023-02-26T17:06:24;4.40;99.90
57652;DHT22;43480;53.116;6.734;2023-02-26T17:08:31;4.40;99.90
57652;DHT22;43480;53.116;6.734;2023-02-26T17:13:27;4.30;99.90
57652;DHT22;43480;53.116;6.734;2023-02-26T17:15:52;4.20;99.90
57652;DHT22;43480;53.116;6.734;2023-02-26T17:18:19;4.20;99.90
57652;DHT22;43480;53.116;6.734;2023-02-26T17:20:44;4.10;99.90
57652;DHT22;43480;53.116;6.734;2023-02-26T17:23:11;4.10;99.90
57652;DHT22;43480;53.116;6.734;2023-02-26T17:25:38;4.10;99.90
57652;DHT22;43480;53.116;6.734;2023-02-26T17:28:05;4.10;99.90
57652;DHT22;43480;53.116;6.734;2023-02-26T17:30:31;4.10;99.90
57652;DHT22;43480;53.116;6.734;2023-02-26T17:32:58;4.00;99.90
57652;DHT22;43480;53.116;6.734;2023-02-26T17:35:24;4.00;99.90
57652;DHT22;43480;53.116;6.734;2023-02-26T17:37:50;4.00;99.90
57652;DHT22;43480;53.116;6.734;2023-02-26T17:42:45;3.90;99.90
57652;DHT22;43480;53.116;6.734;2023-02-26T17:45:11;3.90;99.90
57652;DHT22;43480;53.116;6.734;2023-02-26T17:47:36;3.90;99.90
57652;DHT22;43480;53.116;6.734;2023-02-26T17:50:05;3.80;99.90
57652;DHT22;43480;53.116;6.734;2023-02-26T17:52:35;3.80;99.90
57652;DHT22;43480;53.116;6.734;2023-02-26T17:55:01;3.70;99.90
57652;DHT22;43480;53.116;6.734;2023-02-26T17:57:26;3.70;99.90
57652;DHT22;43480;53.116;6.734;2023-02-26T17:59:52;3.60;99.90
57652;DHT22;43480;53.116;6.734;2023-02-26T18:02:20;3.60;99.90
57652;DHT22;43480;53.116;6.734;2023-02-26T18:04:46;3.60;99.90
57652;DHT22;43480;53.116;6.734;2023-02-26T18:07:13;3.50;99.90
57652;DHT22;43480;53.116;6.734;2023-02-26T18:09:44;3.50;99.90
57652;DHT22;43480;53.116;6.734;2023-02-26T18:12:11;3.60;99.90
57652;DHT22;43480;53.116;6.734;2023-02-26T18:14:37;3.60;99.90
57652;DHT22;43480;53.116;6.734;2023-02-26T18:17:02;3.60;99.90
57652;DHT22;43480;53.116;6.734;2023-02-26T18:19:28;3.60;99.90
57652;DHT22;43480;53.116;6.734;2023-02-26T18:21:53;3.50;99.90
57652;DHT22;43480;53.116;6.734;2023-02-26T18:24:19;3.50;99.90
57652;DHT22;43480;53.116;6.734;2023-02-26T18:26:44;3.40;99.90
57652;DHT22;43480;53.116;6.734;2023-02-26T18:29:10;3.40;99.90
57652;DHT22;43480;53.116;6.734;2023-02-26T18:31:35;3.30;99.90
57652;DHT22;43480;53.116;6.734;2023-02-26T18:34:01;3.30;99.90
57652;DHT22;43480;53.116;6.734;2023-02-26T18:36:28;3.30;99.90
57652;DHT22;43480;53.116;6.734;2023-02-26T18:39:10;3.30;99.90
57652;DHT22;43480;53.116;6.734;2023-02-26T18:41:36;3.30;99.90